sensor_id;sensor_type;location;lat;lon;timestamp;P1;durP1;ratioP1;P2;durP2;ratioP2
23230;SDS011;11784;49.818;8.632;2023-03-04T00:00:48;5.10;;;2.72;;
23230;SDS011;11784;49.818;8.632;2023-03-04T00:03:13;9.05;;;2.90;;
23230;SDS011;11784;49.818;8.632;2023-03-04T00:05:39;3.65;;;1.98;;
23230;SDS011;11784;49.818;8.632;2023-03-04T00:08:05;7.05;;;2.70;;
23230;SDS011;11784;49.818;8.632;2023-03-04T00:10:31;5.28;;;2.20;;
23230;SDS011;11784;49.818;8.632;2023-03-04T00:12:56;10.95;;;4.28;;
23230;SDS011;11784;49.818;8.632;2023-03-04T00:15:22;6.03;;;2.85;;
23230;SDS011;11784;49.818;8.632;2023-03-04T00:17:47;8.13;;;3.67;;
23230;SDS011;11784;49.818;8.632;2023-03-04T00:20:13;11.70;;;4.43;;
23230;SDS011;11784;49.818;8.632;2023-03-04T00:22:39;7.57;;;2.80;;
23230;SDS011;11784;49.818;8.632;2023-03-04T00:25:04;3.85;;;2.28;;
23230;SDS011;11784;49.818;8.632;2023-03-04T00:27:30;7.95;;;2.92;;
23230;SDS011;11784;49.818;8.632;2023-03-04T00:29:56;3.28;;;1.77;;
23230;SDS011;11784;49.818;8.632;2023-03-04T00:32:21;3.15;;;1.77;;
23230;SDS011;11784;49.818;8.632;2023-03-04T00:34:47;6.85;;;2.80;;
23230;SDS011;11784;49.818;8.632;2023-03-04T00:37:12;8.52;;;2.42;;
23230;SDS011;11784;49.818;8.632;2023-03-04T00:39:38;6.57;;;2.10;;
23230;SDS011;11784;49.818;8.632;2023-03-04T00:42:04;5.03;;;2.60;;
23230;SDS011;11784;49.818;8.632;2023-03-04T00:44:30;10.27;;;3.45;;
23230;SDS011;11784;49.818;8.632;2023-03-04T00:46:55;12.02;;;3.92;;
23230;SDS011;11784;49.818;8.632;2023-03-04T00:49:21;20.67;;;6.57;;
23230;SDS011;11784;49.818;8.632;2023-03-04T00:51:46;11.70;;;4.47;;
23230;SDS011;11784;49.818;8.632;2023-03-04T00:54:12;16.20;;;4.80;;
23230;SDS011;11784;49.818;8.632;2023-03-04T00:56:37;8.25;;;3.35;;
23230;SDS011;11784;49.818;8.632;2023-03-04T00:59:03;8.55;;;3.80;;
23230;SDS011;11784;49.818;8.632;2023-03-04T01:01:30;7.25;;;3.10;;
23230;SDS011;11784;49.818;8.632;2023-03-04T01:03:55;5.57;;;2.83;;
23230;SDS011;11784;49.818;8.632;2023-03-04T01:06:21;8.15;;;2.83;;
23230;SDS011;11784;49.818;8.632;2023-03-04T01:08:48;9.20;;;3.50;;
23230;SDS011;11784;49.818;8.632;2023-03-04T01:11:14;13.23;;;4.13;;
23230;SDS011;11784;49.818;8.632;2023-03-04T01:13:39;13.43;;;4.20;;
23230;SDS011;11784;49.818;8.632;2023-03-04T01:16:05;9.07;;;3.20;;
23230;SDS011;11784;49.818;8.632;2023-03-04T01:18:31;6.47;;;3.15;;
23230;SDS011;11784;49.818;8.632;2023-03-04T01:20:57;14.02;;;5.28;;
23230;SDS011;11784;49.818;8.632;2023-03-04T01:23:23;13.73;;;5.00;;
23230;SDS011;11784;49.818;8.632;2023-03-04T01:25:48;13.82;;;4.93;;
23230;SDS011;11784;49.818;8.632;2023-03-04T01:28:14;11.40;;;4.32;;
23230;SDS011;11784;49.818;8.632;2023-03-04T01:30:39;12.90;;;4.85;;
23230;SDS011;11784;49.818;8.632;2023-03-04T01:33:05;20.70;;;6.53;;
23230;SDS011;11784;49.818;8.632;2023-03-04T01:35:31;7.95;;;3.85;;
23230;SDS011;11784;49.818;8.632;2023-03-04T01:37:56;7.35;;;3.33;;
23230;SDS011;11784;49.818;8.632;2023-03-04T01:40:23;9.05;;;2.63;;
23230;SDS011;11784;49.818;8.632;2023-03-04T01:42:49;7.38;;;3.22;;
23230;SDS011;11784;49.818;8.632;2023-03-04T01:45:15;4.97;;;1.92;;
23230;SDS011;11784;49.818;8.632;2023-03-04T01:47:44;4.32;;;2.38;;
23230;SDS011;11784;49.818;8.632;2023-03-04T01:50:14;6.35;;;2.55;;
23230;SDS011;11784;49.818;8.632;2023-03-04T01:52:51;4.93;;;2.90;;
23230;SDS011;11784;49.818;8.632;2023-03-04T01:55:17;7.68;;;2.65;;
23230;SDS011;11784;49.818;8.632;2023-03-04T01:57:45;6.18;;;3.15;;
23230;SDS011;11784;49.818;8.632;2023-03-04T02:02:49;13.18;;;3.58;;
23230;SDS011;11784;49.818;8.632;2023-03-04T02:05:17;12.27;;;4.65;;
23230;SDS011;11784;49.818;8.632;2023-03-04T02:07:44;10.27;;;4.47;;
23230;SDS011;11784;49.818;8.632;2023-03-04T02:10:09;6.35;;;2.45;;
23230;SDS011;11784;49.818;8.632;2023-03-04T02:12:36;4.93;;;2.42;;
23230;SDS011;11784;49.818;8.632;2023-03-04T02:15:03;3.83;;;2.50;;
23230;SDS011;11784;49.818;8.632;2023-03-04T02:17:30;4.72;;;2.10;;
23230;SDS011;11784;49.818;8.632;2023-03-04T02:20:00;4.82;;;2.10;;
23230;SDS011;11784;49.818;8.632;2023-03-04T02:22:40;5.00;;;2.35;;
23230;SDS011;11784;49.818;8.632;2023-03-04T02:25:17;6.65;;;2.50;;
23230;SDS011;11784;49.818;8.632;2023-03-04T02:27:48;5.00;;;1.88;;
23230;SDS011;11784;49.818;8.632;2023-03-04T02:30:13;5.75;;;2.92;;
23230;SDS011;11784;49.818;8.632;2023-03-04T02:32:40;7.78;;;2.70;;
23230;SDS011;11784;49.818;8.632;2023-03-04T02:35:07;7.22;;;3.38;;
23230;SDS011;11784;49.818;8.632;2023-03-04T02:37:39;4.85;;;2.28;;
23230;SDS011;11784;49.818;8.632;2023-03-04T02:40:05;5.88;;;2.03;;
23230;SDS011;11784;49.818;8.632;2023-03-04T02:42:38;8.43;;;4.00;;
23230;SDS011;11784;49.818;8.632;2023-03-04T02:45:03;4.50;;;2.17;;
23230;SDS011;11784;49.818;8.632;2023-03-04T02:47:29;6.32;;;3.13;;
23230;SDS011;11784;49.818;8.632;2023-03-04T02:49:55;6.22;;;2.13;;
23230;SDS011;11784;49.818;8.632;2023-03-04T02:52:23;6.07;;;2.63;;
23230;SDS011;11784;49.818;8.632;2023-03-04T02:54:50;5.40;;;2.45;;
23230;SDS011;11784;49.818;8.632;2023-03-04T02:57:15;7.50;;;2.92;;
23230;SDS011;11784;49.818;8.632;2023-03-04T02:59:41;5.30;;;2.95;;
23230;SDS011;11784;49.818;8.632;2023-03-04T03:02:07;7.03;;;2.85;;
23230;SDS011;11784;49.818;8.632;2023-03-04T03:04:33;5.10;;;2.45;;
23230;SDS011;11784;49.818;8.632;2023-03-04T03:07:01;6.82;;;3.05;;
23230;SDS011;11784;49.818;8.632;2023-03-04T03:09:27;6.95;;;3.03;;
23230;SDS011;11784;49.818;8.632;2023-03-04T03:11:53;5.05;;;2.53;;
23230;SDS011;11784;49.818;8.632;2023-03-04T03:14:18;8.60;;;3.70;;
23230;SDS011;11784;49.818;8.632;2023-03-04T03:16:44;7.88;;;3.33;;
23230;SDS011;11784;49.818;8.632;2023-03-04T03:19:09;12.65;;;2.65;;
23230;SDS011;11784;49.818;8.632;2023-03-04T03:21:35;7.45;;;3.08;;
23230;SDS011;11784;49.818;8.632;2023-03-04T03:24:00;6.97;;;2.47;;
23230;SDS011;11784;49.818;8.632;2023-03-04T03:26:26;7.65;;;3.28;;
23230;SDS011;11784;49.818;8.632;2023-03-04T03:28:51;6.35;;;2.53;;
23230;SDS011;11784;49.818;8.632;2023-03-04T03:31:17;7.32;;;2.63;;
23230;SDS011;11784;49.818;8.632;2023-03-04T03:33:43;11.13;;;3.20;;
23230;SDS011;11784;49.818;8.632;2023-03-04T03:36:09;6.32;;;2.92;;
23230;SDS011;11784;49.818;8.632;2023-03-04T03:38:34;9.10;;;3.20;;
23230;SDS011;11784;49.818;8.632;2023-03-04T03:41:00;8.55;;;3.50;;
23230;SDS011;11784;49.818;8.632;2023-03-04T03:43:25;6.25;;;2.72;;
23230;SDS011;11784;49.818;8.632;2023-03-04T03:45:51;9.45;;;3.20;;
23230;SDS011;11784;49.818;8.632;2023-03-04T03:48:17;6.63;;;2.85;;
23230;SDS011;11784;49.818;8.632;2023-03-04T03:50:42;8.85;;;2.35;;
23230;SDS011;11784;49.818;8.632;2023-03-04T03:53:08;5.88;;;2.90;;
23230;SDS011;11784;49.818;8.632;2023-03-04T03:55:33;4.32;;;2.50;;
23230;SDS011;11784;49.818;8.632;2023-03-04T03:57:59;11.20;;;3.47;;
23230;SDS011;11784;49.818;8.632;2023-03-04T04:00:24;6.65;;;3.00;;
23230;SDS011;11784;49.818;8.632;2023-03-04T04:02:50;6.60;;;3.30;;
23230;SDS011;11784;49.818;8.632;2023-03-04T04:05:18;9.75;;;3.13;;
23230;SDS011;11784;49.818;8.632;2023-03-04T04:07:44;7.07;;;2.67;;
23230;SDS011;11784;49.818;8.632;2023-03-04T04:10:09;5.45;;;2.95;;
23230;SDS011;11784;49.818;8.632;2023-03-04T04:12:35;7.30;;;2.50;;
23230;SDS011;11784;49.818;8.632;2023-03-04T04:15:01;9.45;;;3.40;;
23230;SDS011;11784;49.818;8.632;2023-03-04T04:17:26;5.18;;;3.03;;
23230;SDS011;11784;49.818;8.632;2023-03-04T04:19:52;4.30;;;2.40;;
23230;SDS011;11784;49.818;8.632;2023-03-04T04:22:18;10.88;;;2.58;;
23230;SDS011;11784;49.818;8.632;2023-03-04T04:24:44;7.20;;;2.95;;
23230;SDS011;11784;49.818;8.632;2023-03-04T04:27:10;10.85;;;3.28;;
23230;SDS011;11784;49.818;8.632;2023-03-04T04:29:36;4.03;;;2.35;;
23230;SDS011;11784;49.818;8.632;2023-03-04T04:32:02;5.15;;;2.38;;
23230;SDS011;11784;49.818;8.632;2023-03-04T04:34:28;5.90;;;2.80;;
23230;SDS011;11784;49.818;8.632;2023-03-04T04:36:53;8.82;;;2.53;;
23230;SDS011;11784;49.818;8.632;2023-03-04T04:39:19;5.68;;;2.47;;
23230;SDS011;11784;49.818;8.632;2023-03-04T04:41:45;7.15;;;2.58;;
23230;SDS011;11784;49.818;8.632;2023-03-04T04:44:11;6.47;;;2.97;;
23230;SDS011;11784;49.818;8.632;2023-03-04T04:46:38;11.60;;;2.40;;
23230;SDS011;11784;49.818;8.632;2023-03-04T04:49:04;9.02;;;3.80;;
23230;SDS011;11784;49.818;8.632;2023-03-04T04:51:31;6.20;;;3.22;;
23230;SDS011;11784;49.818;8.632;2023-03-04T04:53:57;6.55;;;2.63;;
23230;SDS011;11784;49.818;8.632;2023-03-04T04:56:24;4.88;;;2.88;;
23230;SDS011;11784;49.818;8.632;2023-03-04T04:58:50;9.13;;;3.83;;
23230;SDS011;11784;49.818;8.632;2023-03-04T05:01:18;10.00;;;3.53;;
23230;SDS011;11784;49.818;8.632;2023-03-04T05:03:44;7.13;;;3.30;;
23230;SDS011;11784;49.818;8.632;2023-03-04T05:06:10;8.60;;;3.60;;
23230;SDS011;11784;49.818;8.632;2023-03-04T05:08:36;7.55;;;3.33;;
23230;SDS011;11784;49.818;8.632;2023-03-04T05:11:02;6.43;;;2.85;;
23230;SDS011;11784;49.818;8.632;2023-03-04T05:13:29;10.23;;;3.50;;
23230;SDS011;11784;49.818;8.632;2023-03-04T05:15:55;9.85;;;2.78;;
23230;SDS011;11784;49.818;8.632;2023-03-04T05:18:22;9.65;;;4.78;;
23230;SDS011;11784;49.818;8.632;2023-03-04T05:20:59;8.77;;;3.67;;
23230;SDS011;11784;49.818;8.632;2023-03-04T05:23:27;8.10;;;4.05;;
23230;SDS011;11784;49.818;8.632;2023-03-04T05:25:54;10.43;;;3.75;;
23230;SDS011;11784;49.818;8.632;2023-03-04T05:28:20;7.97;;;2.92;;
23230;SDS011;11784;49.818;8.632;2023-03-04T05:30:46;3.75;;;2.20;;
23230;SDS011;11784;49.818;8.632;2023-03-04T05:33:12;8.95;;;2.75;;
23230;SDS011;11784;49.818;8.632;2023-03-04T05:35:39;5.43;;;2.38;;
23230;SDS011;11784;49.818;8.632;2023-03-04T05:38:06;13.43;;;3.30;;
23230;SDS011;11784;49.818;8.632;2023-03-04T05:40:33;6.82;;;2.45;;
23230;SDS011;11784;49.818;8.632;2023-03-04T05:42:59;7.13;;;3.13;;
23230;SDS011;11784;49.818;8.632;2023-03-04T05:45:25;7.80;;;3.58;;
23230;SDS011;11784;49.818;8.632;2023-03-04T05:47:51;9.13;;;3.78;;
23230;SDS011;11784;49.818;8.632;2023-03-04T05:50:17;8.45;;;3.08;;
23230;SDS011;11784;49.818;8.632;2023-03-04T05:52:46;7.25;;;3.47;;
23230;SDS011;11784;49.818;8.632;2023-03-04T05:55:11;10.25;;;3.05;;
23230;SDS011;11784;49.818;8.632;2023-03-04T05:57:37;5.18;;;2.92;;
23230;SDS011;11784;49.818;8.632;2023-03-04T06:00:03;7.13;;;3.60;;
23230;SDS011;11784;49.818;8.632;2023-03-04T06:02:30;12.05;;;4.07;;
23230;SDS011;11784;49.818;8.632;2023-03-04T06:04:55;13.20;;;4.55;;
23230;SDS011;11784;49.818;8.632;2023-03-04T06:07:21;10.77;;;4.63;;
23230;SDS011;11784;49.818;8.632;2023-03-04T06:09:51;6.13;;;3.67;;
23230;SDS011;11784;49.818;8.632;2023-03-04T06:12:16;9.18;;;4.57;;
23230;SDS011;11784;49.818;8.632;2023-03-04T06:14:42;8.68;;;3.60;;
23230;SDS011;11784;49.818;8.632;2023-03-04T06:17:07;10.27;;;4.32;;
23230;SDS011;11784;49.818;8.632;2023-03-04T06:19:33;11.23;;;5.45;;
23230;SDS011;11784;49.818;8.632;2023-03-04T06:21:58;10.85;;;4.15;;
23230;SDS011;11784;49.818;8.632;2023-03-04T06:24:24;9.18;;;4.82;;
23230;SDS011;11784;49.818;8.632;2023-03-04T06:26:52;10.07;;;4.68;;
23230;SDS011;11784;49.818;8.632;2023-03-04T06:29:17;15.52;;;5.57;;
23230;SDS011;11784;49.818;8.632;2023-03-04T06:31:43;11.65;;;4.60;;
23230;SDS011;11784;49.818;8.632;2023-03-04T06:34:09;10.80;;;4.43;;
23230;SDS011;11784;49.818;8.632;2023-03-04T06:36:35;12.60;;;5.35;;
23230;SDS011;11784;49.818;8.632;2023-03-04T06:39:02;17.90;;;5.72;;
23230;SDS011;11784;49.818;8.632;2023-03-04T06:41:28;16.88;;;6.22;;
23230;SDS011;11784;49.818;8.632;2023-03-04T06:43:54;14.70;;;5.80;;
23230;SDS011;11784;49.818;8.632;2023-03-04T06:46:20;13.45;;;5.38;;
23230;SDS011;11784;49.818;8.632;2023-03-04T06:48:45;13.07;;;6.25;;
23230;SDS011;11784;49.818;8.632;2023-03-04T06:51:11;15.57;;;4.75;;
23230;SDS011;11784;49.818;8.632;2023-03-04T06:53:38;12.60;;;5.78;;
23230;SDS011;11784;49.818;8.632;2023-03-04T06:56:04;11.75;;;5.40;;
23230;SDS011;11784;49.818;8.632;2023-03-04T06:58:32;11.55;;;4.70;;
23230;SDS011;11784;49.818;8.632;2023-03-04T07:01:08;13.90;;;4.80;;
23230;SDS011;11784;49.818;8.632;2023-03-04T07:03:42;10.65;;;4.25;;
23230;SDS011;11784;49.818;8.632;2023-03-04T07:06:09;20.15;;;6.25;;
23230;SDS011;11784;49.818;8.632;2023-03-04T07:08:37;18.02;;;6.20;;
23230;SDS011;11784;49.818;8.632;2023-03-04T07:11:03;13.60;;;4.80;;
23230;SDS011;11784;49.818;8.632;2023-03-04T07:13:29;11.85;;;4.82;;
23230;SDS011;11784;49.818;8.632;2023-03-04T07:15:55;11.23;;;5.35;;
23230;SDS011;11784;49.818;8.632;2023-03-04T07:18:21;16.63;;;6.60;;
23230;SDS011;11784;49.818;8.632;2023-03-04T07:20:46;14.70;;;5.13;;
23230;SDS011;11784;49.818;8.632;2023-03-04T07:23:15;11.27;;;4.20;;
23230;SDS011;11784;49.818;8.632;2023-03-04T07:25:40;16.98;;;5.90;;
23230;SDS011;11784;49.818;8.632;2023-03-04T07:28:06;15.35;;;5.15;;
23230;SDS011;11784;49.818;8.632;2023-03-04T07:30:31;11.18;;;4.75;;
23230;SDS011;11784;49.818;8.632;2023-03-04T07:32:57;12.85;;;4.82;;
23230;SDS011;11784;49.818;8.632;2023-03-04T07:35:22;13.45;;;5.15;;
23230;SDS011;11784;49.818;8.632;2023-03-04T07:37:48;12.13;;;5.13;;
23230;SDS011;11784;49.818;8.632;2023-03-04T07:40:13;16.33;;;5.75;;
23230;SDS011;11784;49.818;8.632;2023-03-04T07:42:39;15.13;;;5.60;;
23230;SDS011;11784;49.818;8.632;2023-03-04T07:45:05;16.77;;;5.53;;
23230;SDS011;11784;49.818;8.632;2023-03-04T07:47:31;12.13;;;4.97;;
23230;SDS011;11784;49.818;8.632;2023-03-04T07:49:57;13.15;;;4.95;;
23230;SDS011;11784;49.818;8.632;2023-03-04T07:52:23;12.55;;;5.43;;
23230;SDS011;11784;49.818;8.632;2023-03-04T07:54:48;17.67;;;6.22;;
23230;SDS011;11784;49.818;8.632;2023-03-04T07:57:14;13.63;;;5.15;;
23230;SDS011;11784;49.818;8.632;2023-03-04T07:59:39;12.38;;;5.05;;
23230;SDS011;11784;49.818;8.632;2023-03-04T08:02:05;12.20;;;5.13;;
23230;SDS011;11784;49.818;8.632;2023-03-04T08:04:31;11.25;;;5.20;;
23230;SDS011;11784;49.818;8.632;2023-03-04T08:06:56;14.63;;;5.90;;
23230;SDS011;11784;49.818;8.632;2023-03-04T08:09:22;15.48;;;5.47;;
23230;SDS011;11784;49.818;8.632;2023-03-04T08:11:47;18.10;;;6.28;;
23230;SDS011;11784;49.818;8.632;2023-03-04T08:14:13;14.15;;;5.07;;
23230;SDS011;11784;49.818;8.632;2023-03-04T08:16:39;15.23;;;5.93;;
23230;SDS011;11784;49.818;8.632;2023-03-04T08:19:05;13.75;;;6.07;;
23230;SDS011;11784;49.818;8.632;2023-03-04T08:21:31;22.23;;;6.88;;
23230;SDS011;11784;49.818;8.632;2023-03-04T08:23:57;17.38;;;6.60;;
23230;SDS011;11784;49.818;8.632;2023-03-04T08:26:27;15.20;;;6.43;;
23230;SDS011;11784;49.818;8.632;2023-03-04T08:29:02;17.52;;;6.95;;
23230;SDS011;11784;49.818;8.632;2023-03-04T08:31:29;14.32;;;5.30;;
23230;SDS011;11784;49.818;8.632;2023-03-04T08:33:55;14.70;;;6.30;;
23230;SDS011;11784;49.818;8.632;2023-03-04T08:36:20;24.35;;;7.20;;
23230;SDS011;11784;49.818;8.632;2023-03-04T08:38:46;17.02;;;6.30;;
23230;SDS011;11784;49.818;8.632;2023-03-04T08:41:12;16.13;;;5.80;;
23230;SDS011;11784;49.818;8.632;2023-03-04T08:43:37;16.67;;;6.55;;
23230;SDS011;11784;49.818;8.632;2023-03-04T08:46:03;16.45;;;8.27;;
23230;SDS011;11784;49.818;8.632;2023-03-04T08:48:30;21.77;;;7.20;;
23230;SDS011;11784;49.818;8.632;2023-03-04T08:50:55;17.88;;;7.07;;
23230;SDS011;11784;49.818;8.632;2023-03-04T08:53:22;14.68;;;5.50;;
23230;SDS011;11784;49.818;8.632;2023-03-04T08:55:47;16.15;;;6.63;;
23230;SDS011;11784;49.818;8.632;2023-03-04T08:58:14;17.70;;;6.88;;
23230;SDS011;11784;49.818;8.632;2023-03-04T09:00:43;18.90;;;7.78;;
23230;SDS011;11784;49.818;8.632;2023-03-04T09:03:12;14.35;;;5.75;;
23230;SDS011;11784;49.818;8.632;2023-03-04T09:05:38;19.00;;;7.65;;
23230;SDS011;11784;49.818;8.632;2023-03-04T09:08:03;19.15;;;6.38;;
23230;SDS011;11784;49.818;8.632;2023-03-04T09:10:29;12.25;;;5.18;;
23230;SDS011;11784;49.818;8.632;2023-03-04T09:12:54;18.25;;;7.07;;
23230;SDS011;11784;49.818;8.632;2023-03-04T09:15:20;20.75;;;6.38;;
23230;SDS011;11784;49.818;8.632;2023-03-04T09:17:45;20.05;;;7.72;;
23230;SDS011;11784;49.818;8.632;2023-03-04T09:20:17;18.73;;;7.28;;
23230;SDS011;11784;49.818;8.632;2023-03-04T09:22:44;16.60;;;7.20;;
23230;SDS011;11784;49.818;8.632;2023-03-04T09:25:11;22.52;;;7.00;;
23230;SDS011;11784;49.818;8.632;2023-03-04T09:27:49;14.02;;;6.90;;
23230;SDS011;11784;49.818;8.632;2023-03-04T09:30:15;18.85;;;7.38;;
23230;SDS011;11784;49.818;8.632;2023-03-04T09:32:41;15.43;;;6.82;;
23230;SDS011;11784;49.818;8.632;2023-03-04T09:35:07;16.15;;;6.47;;
23230;SDS011;11784;49.818;8.632;2023-03-04T09:37:34;18.38;;;7.28;;
23230;SDS011;11784;49.818;8.632;2023-03-04T09:40:00;22.98;;;8.02;;
23230;SDS011;11784;49.818;8.632;2023-03-04T09:42:27;15.90;;;7.18;;
23230;SDS011;11784;49.818;8.632;2023-03-04T09:44:58;15.57;;;7.57;;
23230;SDS011;11784;49.818;8.632;2023-03-04T09:47:25;22.27;;;6.35;;
23230;SDS011;11784;49.818;8.632;2023-03-04T09:50:06;20.38;;;7.95;;
23230;SDS011;11784;49.818;8.632;2023-03-04T09:55:44;16.15;;;6.82;;
23230;SDS011;11784;49.818;8.632;2023-03-04T10:03:53;16.60;;;6.35;;
23230;SDS011;11784;49.818;8.632;2023-03-04T10:06:40;15.60;;;6.10;;
23230;SDS011;11784;49.818;8.632;2023-03-04T10:09:14;20.88;;;7.03;;
23230;SDS011;11784;49.818;8.632;2023-03-04T10:11:44;16.17;;;6.53;;
23230;SDS011;11784;49.818;8.632;2023-03-04T10:14:26;20.27;;;5.80;;
23230;SDS011;11784;49.818;8.632;2023-03-04T10:17:14;16.35;;;6.18;;
23230;SDS011;11784;49.818;8.632;2023-03-04T10:24:50;17.38;;;8.02;;
23230;SDS011;11784;49.818;8.632;2023-03-04T10:27:19;16.98;;;6.68;;
23230;SDS011;11784;49.818;8.632;2023-03-04T10:29:45;15.55;;;6.18;;
23230;SDS011;11784;49.818;8.632;2023-03-04T10:32:15;18.23;;;7.07;;
23230;SDS011;11784;49.818;8.632;2023-03-04T10:34:43;27.42;;;8.02;;
23230;SDS011;11784;49.818;8.632;2023-03-04T10:37:09;18.70;;;8.27;;
23230;SDS011;11784;49.818;8.632;2023-03-04T10:39:45;19.73;;;7.38;;
23230;SDS011;11784;49.818;8.632;2023-03-04T10:44:58;17.65;;;7.85;;
23230;SDS011;11784;49.818;8.632;2023-03-04T10:47:26;24.13;;;8.55;;
23230;SDS011;11784;49.818;8.632;2023-03-04T10:52:31;19.27;;;8.05;;
23230;SDS011;11784;49.818;8.632;2023-03-04T10:55:17;14.98;;;6.53;;
23230;SDS011;11784;49.818;8.632;2023-03-04T10:57:43;25.63;;;8.63;;
23230;SDS011;11784;49.818;8.632;2023-03-04T11:02:43;19.65;;;7.35;;
23230;SDS011;11784;49.818;8.632;2023-03-04T11:05:20;18.67;;;8.13;;
23230;SDS011;11784;49.818;8.632;2023-03-04T11:12:58;23.20;;;7.95;;
23230;SDS011;11784;49.818;8.632;2023-03-04T11:15:26;20.30;;;7.88;;
23230;SDS011;11784;49.818;8.632;2023-03-04T11:17:59;14.43;;;7.28;;
23230;SDS011;11784;49.818;8.632;2023-03-04T11:20:32;20.05;;;7.95;;
23230;SDS011;11784;49.818;8.632;2023-03-04T11:23:02;16.45;;;6.57;;
23230;SDS011;11784;49.818;8.632;2023-03-04T11:25:35;20.73;;;6.65;;
23230;SDS011;11784;49.818;8.632;2023-03-04T11:30:51;15.23;;;6.30;;
23230;SDS011;11784;49.818;8.632;2023-03-04T11:36:22;17.40;;;6.78;;
23230;SDS011;11784;49.818;8.632;2023-03-04T11:38:56;20.08;;;8.30;;
23230;SDS011;11784;49.818;8.632;2023-03-04T11:41:28;20.05;;;6.53;;
23230;SDS011;11784;49.818;8.632;2023-03-04T11:43:57;14.93;;;6.65;;
23230;SDS011;11784;49.818;8.632;2023-03-04T11:46:34;18.27;;;6.90;;
23230;SDS011;11784;49.818;8.632;2023-03-04T11:57:53;14.57;;;5.75;;
23230;SDS011;11784;49.818;8.632;2023-03-04T12:00:46;17.02;;;5.20;;
23230;SDS011;11784;49.818;8.632;2023-03-04T12:06:17;9.30;;;4.53;;
23230;SDS011;11784;49.818;8.632;2023-03-04T12:14:10;17.42;;;5.43;;
23230;SDS011;11784;49.818;8.632;2023-03-04T12:16:51;17.55;;;5.30;;
23230;SDS011;11784;49.818;8.632;2023-03-04T12:19:36;12.50;;;5.90;;
23230;SDS011;11784;49.818;8.632;2023-03-04T12:22:25;19.90;;;6.03;;
23230;SDS011;11784;49.818;8.632;2023-03-04T12:27:43;12.70;;;5.30;;
23230;SDS011;11784;49.818;8.632;2023-03-04T12:30:38;12.50;;;5.10;;
23230;SDS011;11784;49.818;8.632;2023-03-04T12:33:09;11.85;;;4.22;;
23230;SDS011;11784;49.818;8.632;2023-03-04T12:35:52;13.05;;;5.28;;
23230;SDS011;11784;49.818;8.632;2023-03-04T12:41:17;5.85;;;3.40;;
23230;SDS011;11784;49.818;8.632;2023-03-04T12:44:21;16.92;;;5.88;;
23230;SDS011;11784;49.818;8.632;2023-03-04T12:47:04;17.10;;;6.13;;
23230;SDS011;11784;49.818;8.632;2023-03-04T12:49:45;13.73;;;5.00;;
23230;SDS011;11784;49.818;8.632;2023-03-04T12:52:36;12.57;;;4.90;;
23230;SDS011;11784;49.818;8.632;2023-03-04T12:55:33;13.13;;;4.63;;
23230;SDS011;11784;49.818;8.632;2023-03-04T12:58:01;11.52;;;4.72;;
23230;SDS011;11784;49.818;8.632;2023-03-04T13:00:50;13.05;;;5.28;;
23230;SDS011;11784;49.818;8.632;2023-03-04T13:06:42;16.50;;;6.05;;
23230;SDS011;11784;49.818;8.632;2023-03-04T13:09:18;15.55;;;5.80;;
23230;SDS011;11784;49.818;8.632;2023-03-04T13:11:53;18.67;;;5.88;;
23230;SDS011;11784;49.818;8.632;2023-03-04T13:14:28;21.80;;;6.28;;
23230;SDS011;11784;49.818;8.632;2023-03-04T13:16:56;14.13;;;5.63;;
23230;SDS011;11784;49.818;8.632;2023-03-04T13:22:25;11.40;;;5.28;;
23230;SDS011;11784;49.818;8.632;2023-03-04T13:24:51;10.82;;;4.60;;
23230;SDS011;11784;49.818;8.632;2023-03-04T13:43:42;11.77;;;5.10;;
23230;SDS011;11784;49.818;8.632;2023-03-04T13:48:43;12.88;;;5.95;;
23230;SDS011;11784;49.818;8.632;2023-03-04T13:56:44;16.80;;;5.35;;
23230;SDS011;11784;49.818;8.632;2023-03-04T14:02:09;12.18;;;5.55;;
23230;SDS011;11784;49.818;8.632;2023-03-04T14:07:25;12.25;;;5.07;;
23230;SDS011;11784;49.818;8.632;2023-03-04T14:09:55;13.32;;;5.40;;
23230;SDS011;11784;49.818;8.632;2023-03-04T14:12:48;13.45;;;4.22;;
23230;SDS011;11784;49.818;8.632;2023-03-04T14:15:22;12.70;;;4.28;;
23230;SDS011;11784;49.818;8.632;2023-03-04T14:17:53;11.35;;;5.05;;
23230;SDS011;11784;49.818;8.632;2023-03-04T14:20:28;15.23;;;6.10;;
23230;SDS011;11784;49.818;8.632;2023-03-04T14:23:03;9.85;;;4.70;;
23230;SDS011;11784;49.818;8.632;2023-03-04T14:25:46;9.98;;;4.40;;
23230;SDS011;11784;49.818;8.632;2023-03-04T14:28:15;8.52;;;4.38;;
23230;SDS011;11784;49.818;8.632;2023-03-04T14:30:50;9.07;;;4.35;;
23230;SDS011;11784;49.818;8.632;2023-03-04T14:33:18;9.60;;;3.92;;
23230;SDS011;11784;49.818;8.632;2023-03-04T14:35:48;12.77;;;4.65;;
23230;SDS011;11784;49.818;8.632;2023-03-04T14:43:35;10.07;;;4.53;;
23230;SDS011;11784;49.818;8.632;2023-03-04T14:46:17;8.48;;;3.72;;
23230;SDS011;11784;49.818;8.632;2023-03-04T14:48:50;11.07;;;4.30;;
23230;SDS011;11784;49.818;8.632;2023-03-04T14:51:31;14.02;;;5.18;;
23230;SDS011;11784;49.818;8.632;2023-03-04T14:53:57;18.15;;;5.10;;
23230;SDS011;11784;49.818;8.632;2023-03-04T14:56:27;11.82;;;4.90;;
23230;SDS011;11784;49.818;8.632;2023-03-04T14:58:55;10.30;;;4.38;;
23230;SDS011;11784;49.818;8.632;2023-03-04T15:01:27;9.00;;;3.97;;
23230;SDS011;11784;49.818;8.632;2023-03-04T15:03:56;9.63;;;4.47;;
23230;SDS011;11784;49.818;8.632;2023-03-04T15:06:32;11.35;;;4.25;;
23230;SDS011;11784;49.818;8.632;2023-03-04T15:09:01;14.25;;;4.65;;
23230;SDS011;11784;49.818;8.632;2023-03-04T15:11:43;12.25;;;4.68;;
23230;SDS011;11784;49.818;8.632;2023-03-04T15:17:21;13.90;;;4.97;;
23230;SDS011;11784;49.818;8.632;2023-03-04T15:20:00;12.35;;;4.93;;
23230;SDS011;11784;49.818;8.632;2023-03-04T15:22:32;13.85;;;5.68;;
23230;SDS011;11784;49.818;8.632;2023-03-04T15:25:20;12.90;;;4.35;;
23230;SDS011;11784;49.818;8.632;2023-03-04T15:27:47;12.32;;;4.68;;
23230;SDS011;11784;49.818;8.632;2023-03-04T15:30:46;9.82;;;4.63;;
23230;SDS011;11784;49.818;8.632;2023-03-04T15:35:34;12.63;;;4.60;;
23230;SDS011;11784;49.818;8.632;2023-03-04T15:37:59;17.25;;;4.97;;
23230;SDS011;11784;49.818;8.632;2023-03-04T15:40:28;15.68;;;4.90;;
23230;SDS011;11784;49.818;8.632;2023-03-04T15:43:00;11.20;;;4.68;;
23230;SDS011;11784;49.818;8.632;2023-03-04T15:45:29;11.57;;;4.72;;
23230;SDS011;11784;49.818;8.632;2023-03-04T15:48:02;12.23;;;4.72;;
23230;SDS011;11784;49.818;8.632;2023-03-04T15:50:32;10.80;;;4.60;;
23230;SDS011;11784;49.818;8.632;2023-03-04T15:53:02;12.50;;;4.47;;
23230;SDS011;11784;49.818;8.632;2023-03-04T15:55:30;10.52;;;4.15;;
23230;SDS011;11784;49.818;8.632;2023-03-04T15:57:57;12.57;;;4.57;;
23230;SDS011;11784;49.818;8.632;2023-03-04T16:00:24;11.95;;;4.65;;
23230;SDS011;11784;49.818;8.632;2023-03-04T16:02:50;10.95;;;4.40;;
23230;SDS011;11784;49.818;8.632;2023-03-04T16:05:16;16.27;;;4.68;;
23230;SDS011;11784;49.818;8.632;2023-03-04T16:07:43;8.15;;;3.58;;
23230;SDS011;11784;49.818;8.632;2023-03-04T16:10:16;10.73;;;3.38;;
23230;SDS011;11784;49.818;8.632;2023-03-04T16:12:53;13.52;;;3.95;;
23230;SDS011;11784;49.818;8.632;2023-03-04T16:15:20;10.20;;;4.05;;
23230;SDS011;11784;49.818;8.632;2023-03-04T16:17:48;8.73;;;4.28;;
23230;SDS011;11784;49.818;8.632;2023-03-04T16:20:14;9.65;;;4.70;;
23230;SDS011;11784;49.818;8.632;2023-03-04T16:22:47;9.23;;;4.10;;
23230;SDS011;11784;49.818;8.632;2023-03-04T16:25:15;9.57;;;4.47;;
23230;SDS011;11784;49.818;8.632;2023-03-04T16:27:42;8.55;;;4.05;;
23230;SDS011;11784;49.818;8.632;2023-03-04T16:30:12;12.40;;;4.65;;
23230;SDS011;11784;49.818;8.632;2023-03-04T16:32:40;9.63;;;3.85;;
23230;SDS011;11784;49.818;8.632;2023-03-04T16:35:06;10.45;;;4.45;;